Time;durP1;ratioP1;P1;durP2;ratioP2;P2;SDS_P1;SDS_P2;PMS_P1;PMS_P2;Temp;Humidity;BMP_temperature;BMP_pressure;BME280_temperature;BME280_humidity;BME280_pressure;Samples;Min_cycle;Max_cycle;Signal;HPM_P1;HPM_P2
2022/10/05 00:01:29;;;;;;;0.20;0.10;;;;;;;;;;4914535;29;20231;-88
2022/10/05 00:04:04;;;;;;;0.20;0.20;;;;;;;;;;4893556;29;20040;-87
2022/10/05 00:06:30;;;;;;;0.30;0.20;;;;;;;;;;4895165;29;20526;-88
2022/10/05 00:08:57;;;;;;;0.20;0.17;;;;;;;;;;4881396;29;20075;-85
2022/10/05 00:11:26;;;;;;;0.20;0.10;;;;;;;;;;4885530;29;20076;-87
2022/10/05 00:13:54;;;;;;;0.20;0.10;;;;;;;;;;4914008;29;20127;-86
2022/10/05 00:16:23;;;;;;;0.20;0.10;;;;;;;;;;4896348;29;20126;-89
2022/10/05 00:18:51;;;;;;;0.20;0.15;;;;;;;;;;4898248;29;20043;-85
2022/10/05 00:21:21;;;;;;;0.20;0.10;;;;;;;;;;4894651;29;20687;-86
2022/10/05 00:23:50;;;;;;;0.20;0.20;;;;;;;;;;4894370;29;20051;-89
2022/10/05 00:26:19;;;;;;;0.20;0.10;;;;;;;;;;4891731;29;20076;-88
2022/10/05 00:28:45;;;;;;;0.20;0.10;;;;;;;;;;4893620;29;20040;-86
2022/10/05 00:31:16;;;;;;;2.20;0.70;;;;;;;;;;4891883;29;20139;-86
2022/10/05 00:33:42;;;;;;;0.20;0.10;;;;;;;;;;4895856;29;20045;-87
2022/10/05 00:36:25;;;;;;;0.20;0.20;;;;;;;;;;4895122;29;20086;-86
2022/10/05 00:38:54;;;;;;;0.20;0.10;;;;;;;;;;4900181;29;20135;-87
2022/10/05 00:41:23;;;;;;;0.20;0.10;;;;;;;;;;4898284;29;20054;-88
2022/10/05 00:43:58;;;;;;;0.20;0.10;;;;;;;;;;4906002;29;20043;-90
2022/10/05 00:46:38;;;;;;;3.28;0.43;;;;;;;;;;4922876;29;20063;-87
2022/10/05 00:49:19;;;;;;;0.20;0.10;;;;;;;;;;4896236;29;20067;-90
2022/10/05 00:51:50;;;;;;;0.20;0.10;;;;;;;;;;4881119;29;20059;-86
2022/10/05 00:54:32;;;;;;;0.20;0.10;;;;;;;;;;4901327;29;20558;-83
2022/10/05 00:57:25;;;;;;;0.20;0.17;;;;;;;;;;4916746;29;20503;-88
2022/10/05 00:59:59;;;;;;;0.30;0.20;;;;;;;;;;4897492;29;20107;-89
2022/10/05 01:02:43;;;;;;;0.20;0.10;;;;;;;;;;4917331;29;20539;-88
2022/10/05 01:05:13;;;;;;;0.20;0.20;;;;;;;;;;4897371;29;20463;-85
2022/10/05 01:07:58;;;;;;;0.20;0.10;;;;;;;;;;4901386;29;20044;-89
2022/10/05 01:10:38;;;;;;;0.20;0.10;;;;;;;;;;4899380;29;20769;-83
2022/10/05 01:13:13;;;;;;;0.20;0.10;;;;;;;;;;4884667;29;20036;-89
2022/10/05 01:16:13;;;;;;;0.20;0.10;;;;;;;;;;4896657;29;20044;-86
2022/10/05 01:18:42;;;;;;;0.20;0.10;;;;;;;;;;4897778;29;20231;-87
2022/10/05 01:21:20;;;;;;;0.20;0.10;;;;;;;;;;4899331;29;24729;-88
2022/10/05 01:23:50;;;;;;;0.43;0.10;;;;;;;;;;4894140;29;20535;-87
2022/10/05 01:26:48;;;;;;;0.20;0.10;;;;;;;;;;4901266;29;20036;-86
2022/10/05 01:29:24;;;;;;;0.20;0.10;;;;;;;;;;4850779;29;20183;-87
2022/10/05 01:31:58;;;;;;;0.20;0.10;;;;;;;;;;4897822;29;20051;-87
2022/10/05 01:34:37;;;;;;;5.10;0.40;;;;;;;;;;4898344;29;20506;-89
2022/10/05 01:37:14;;;;;;;0.20;0.10;;;;;;;;;;4896117;29;20048;-87
2022/10/05 01:39:43;;;;;;;0.20;0.10;;;;;;;;;;4902620;29;20060;-86
2022/10/05 01:42:30;;;;;;;0.20;0.10;;;;;;;;;;4883329;29;20574;-88
2022/10/05 01:45:01;;;;;;;0.20;0.10;;;;;;;;;;4869148;29;20127;-88
2022/10/05 01:47:49;;;;;;;0.20;0.20;;;;;;;;;;4879438;29;20039;-87
2022/10/05 01:50:47;;;;;;;0.20;0.10;;;;;;;;;;4915186;29;20599;-85
2022/10/05 01:53:19;;;;;;;0.20;0.10;;;;;;;;;;4882400;29;20040;-87
2022/10/05 01:55:59;;;;;;;0.20;0.10;;;;;;;;;;4903273;29;20047;-84
2022/10/05 01:58:44;;;;;;;0.85;0.10;;;;;;;;;;4897650;29;20563;-86
2022/10/05 02:01:29;;;;;;;0.20;0.20;;;;;;;;;;4896981;29;20135;-87
2022/10/05 02:03:58;;;;;;;0.20;0.20;;;;;;;;;;4905696;29;20623;-86
2022/10/05 02:06:34;;;;;;;0.40;0.40;;;;;;;;;;4891440;29;20052;-88
2022/10/05 02:09:14;;;;;;;0.20;0.10;;;;;;;;;;4906815;29;20139;-86
2022/10/05 02:11:52;;;;;;;0.20;0.10;;;;;;;;;;4902259;29;20061;-88
2022/10/05 02:14:21;;;;;;;0.20;0.10;;;;;;;;;;4922224;29;20601;-85
2022/10/05 02:16:48;;;;;;;0.30;0.30;;;;;;;;;;4894345;29;20126;-88
2022/10/05 02:19:22;;;;;;;0.20;0.10;;;;;;;;;;4919598;29;20080;-88
2022/10/05 02:22:06;;;;;;;0.38;0.20;;;;;;;;;;4919176;29;20048;-91
2022/10/05 02:24:36;;;;;;;0.20;0.10;;;;;;;;;;4908480;29;20515;-87
2022/10/05 02:27:03;;;;;;;0.20;0.10;;;;;;;;;;4910266;29;20090;-86
2022/10/05 02:29:31;;;;;;;0.20;0.10;;;;;;;;;;4909098;29;20139;-87
2022/10/05 02:32:00;;;;;;;0.20;0.10;;;;;;;;;;4923347;29;20048;-86
2022/10/05 02:34:30;;;;;;;0.20;0.10;;;;;;;;;;4905275;29;20151;-86
2022/10/05 02:37:00;;;;;;;0.20;0.10;;;;;;;;;;4893341;29;20039;-86
2022/10/05 02:39:38;;;;;;;0.20;0.10;;;;;;;;;;4908042;29;20048;-86
2022/10/05 02:42:23;;;;;;;0.20;0.10;;;;;;;;;;4908728;29;20044;-83
2022/10/05 02:45:00;;;;;;;0.20;0.10;;;;;;;;;;4910682;29;20055;-84
2022/10/05 02:47:33;;;;;;;0.20;0.10;;;;;;;;;;4914354;29;20062;-86
2022/10/05 02:50:01;;;;;;;0.20;0.10;;;;;;;;;;4908161;29;20154;-88
2022/10/05 02:52:45;;;;;;;0.20;0.10;;;;;;;;;;4911678;29;20079;-87
2022/10/05 02:55:12;;;;;;;0.20;0.10;;;;;;;;;;4907013;29;20111;-88
2022/10/05 02:57:58;;;;;;;0.20;0.10;;;;;;;;;;4900517;29;20044;-84
2022/10/05 03:00:25;;;;;;;0.20;0.10;;;;;;;;;;4898581;29;20071;-84
2022/10/05 03:02:57;;;;;;;0.20;0.10;;;;;;;;;;4918551;29;20044;-88
2022/10/05 03:05:23;;;;;;;0.20;0.20;;;;;;;;;;4902171;29;20046;-88
2022/10/05 03:08:25;;;;;;;0.20;0.10;;;;;;;;;;4921887;29;20080;-84
2022/10/05 03:10:57;;;;;;;0.20;0.10;;;;;;;;;;4880569;29;20048;-85
2022/10/05 03:13:32;;;;;;;0.20;0.20;;;;;;;;;;4900711;29;20048;-86
2022/10/05 03:16:07;;;;;;;0.45;0.25;;;;;;;;;;4904919;29;20039;-84
2022/10/05 03:18:45;;;;;;;0.20;0.10;;;;;;;;;;4908195;29;20462;-89
2022/10/05 03:21:30;;;;;;;0.20;0.10;;;;;;;;;;4904441;29;20043;-84
2022/10/05 03:24:12;;;;;;;0.20;0.10;;;;;;;;;;4904355;29;20691;-87
2022/10/05 03:26:50;;;;;;;0.28;0.17;;;;;;;;;;4906259;29;20134;-84
2022/10/05 03:29:19;;;;;;;0.20;0.10;;;;;;;;;;4902674;29;20040;-86
2022/10/05 03:31:53;;;;;;;0.20;0.10;;;;;;;;;;4901209;29;20044;-85
2022/10/05 03:34:29;;;;;;;0.20;0.10;;;;;;;;;;4898238;29;23125;-84
2022/10/05 03:37:01;;;;;;;0.20;0.10;;;;;;;;;;4895875;29;20100;-88
2022/10/05 03:39:27;;;;;;;;;;;;;;;;;;4899434;29;20056;-83
2022/10/05 03:41:59;;;;;;;0.20;0.10;;;;;;;;;;4896112;29;19978;-82
2022/10/05 03:44:28;;;;;;;0.20;0.10;;;;;;;;;;4895958;29;20043;-89
2022/10/05 03:47:12;;;;;;;0.20;0.10;;;;;;;;;;4895489;29;20050;-89
2022/10/05 03:49:38;;;;;;;0.20;0.13;;;;;;;;;;4898522;29;20040;-86
2022/10/05 03:52:36;;;;;;;0.20;0.10;;;;;;;;;;4896243;29;20074;-86
2022/10/05 03:55:05;;;;;;;0.20;0.10;;;;;;;;;;4878011;29;20052;-84
2022/10/05 03:57:36;;;;;;;0.20;0.10;;;;;;;;;;4886873;29;20058;-84
2022/10/05 04:00:11;;;;;;;0.20;0.10;;;;;;;;;;4900663;29;20229;-86
2022/10/05 04:03:01;;;;;;;0.20;0.10;;;;;;;;;;4897014;29;20127;-88
2022/10/05 04:05:30;;;;;;;0.20;0.10;;;;;;;;;;4900076;29;20054;-87
2022/10/05 04:08:18;;;;;;;0.20;0.10;;;;;;;;;;4895055;29;20667;-86
2022/10/05 04:10:46;;;;;;;0.20;0.10;;;;;;;;;;4903790;29;20103;-88
2022/10/05 04:13:38;;;;;;;0.20;0.10;;;;;;;;;;4897875;29;20099;-88
2022/10/05 04:16:04;;;;;;;0.30;0.25;;;;;;;;;;4877372;29;20052;-85
2022/10/05 04:18:33;;;;;;;0.20;0.10;;;;;;;;;;4918338;29;20085;-88
2022/10/05 04:21:23;;;;;;;0.20;0.10;;;;;;;;;;4896044;29;20500;-88
2022/10/05 04:23:52;;;;;;;;;;;;;;;;;;4894696;29;20068;-91
2022/10/05 04:26:30;;;;;;;0.20;0.10;;;;;;;;;;4891959;29;20375;-83
2022/10/05 04:29:00;;;;;;;0.20;0.10;;;;;;;;;;4889114;29;20145;-86
2022/10/05 04:31:29;;;;;;;0.30;0.20;;;;;;;;;;4891519;29;20055;-86
2022/10/05 04:34:18;;;;;;;0.20;0.20;;;;;;;;;;4878114;29;22362;-85
2022/10/05 04:36:57;;;;;;;0.20;0.20;;;;;;;;;;4895168;29;20052;-90
2022/10/05 04:39:45;;;;;;;0.40;0.20;;;;;;;;;;4909277;29;20040;-87
2022/10/05 04:42:30;;;;;;;0.20;0.10;;;;;;;;;;4896128;29;20048;-84
2022/10/05 04:45:02;;;;;;;0.20;0.10;;;;;;;;;;4897383;29;20149;-86
2022/10/05 04:47:34;;;;;;;0.20;0.20;;;;;;;;;;4892656;29;20048;-90
2022/10/05 04:50:12;;;;;;;0.20;0.20;;;;;;;;;;4892228;29;20147;-84
2022/10/05 04:52:57;;;;;;;0.20;0.10;;;;;;;;;;4893749;29;20048;-88
2022/10/05 04:55:42;;;;;;;0.20;0.10;;;;;;;;;;4888087;29;20043;-84
2022/10/05 04:58:21;;;;;;;0.20;0.15;;;;;;;;;;4909513;29;20403;-87
2022/10/05 05:00:54;;;;;;;0.20;0.10;;;;;;;;;;4888593;29;20048;-87
2022/10/05 05:03:31;;;;;;;0.20;0.10;;;;;;;;;;4887758;29;20071;-87
2022/10/05 05:06:07;;;;;;;0.20;0.10;;;;;;;;;;4893936;29;20048;-85
2022/10/05 05:08:52;;;;;;;0.20;0.10;;;;;;;;;;4897181;29;20484;-87
2022/10/05 05:11:37;;;;;;;0.20;0.10;;;;;;;;;;4894497;29;20040;-85
2022/10/05 05:14:22;;;;;;;0.20;0.10;;;;;;;;;;4892628;29;20063;-89
2022/10/05 05:16:57;;;;;;;0.47;0.30;;;;;;;;;;4892019;29;20083;-89
2022/10/05 05:19:40;;;;;;;0.20;0.10;;;;;;;;;;4901195;29;20044;-85
2022/10/05 05:22:26;;;;;;;0.20;0.10;;;;;;;;;;4920478;23;20078;-86
2022/10/05 05:25:12;;;;;;;0.20;0.10;;;;;;;;;;4928368;28;20122;-87
2022/10/05 05:27:41;;;;;;;0.20;0.10;;;;;;;;;;4944698;28;20043;-83
2022/10/05 05:30:13;;;;;;;0.38;0.25;;;;;;;;;;4941702;28;20819;-81
2022/10/05 05:32:45;;;;;;;0.20;0.17;;;;;;;;;;4925447;28;20058;-81
2022/10/05 05:38:29;;;;;;;0.20;0.10;;;;;;;;;;4944029;28;20406;-84
2022/10/05 05:41:38;;;;;;;0.73;0.52;;;;;;;;;;4938542;28;20094;-84
2022/10/05 05:44:19;;;;;;;0.20;0.10;;;;;;;;;;4943105;28;20486;-85
2022/10/05 05:46:56;;;;;;;0.20;0.10;;;;;;;;;;4927060;29;20039;-81
2022/10/05 05:49:31;;;;;;;0.20;0.10;;;;;;;;;;4922263;28;20047;-86
2022/10/05 05:51:59;;;;;;;0.45;0.45;;;;;;;;;;4970723;23;20054;-86
2022/10/05 05:54:25;;;;;;;0.20;0.15;;;;;;;;;;4931650;28;20039;-84
2022/10/05 05:57:03;;;;;;;0.20;0.10;;;;;;;;;;4936997;28;20051;-82
2022/10/05 05:59:33;;;;;;;0.43;0.20;;;;;;;;;;4939922;28;20049;-86
2022/10/05 06:02:06;;;;;;;0.38;0.38;;;;;;;;;;4920159;28;20582;-83
2022/10/05 06:04:45;;;;;;;0.32;0.32;;;;;;;;;;4939401;28;20086;-83
2022/10/05 06:07:14;;;;;;;0.20;0.10;;;;;;;;;;4941122;28;20039;-83
2022/10/05 06:09:46;;;;;;;0.20;0.10;;;;;;;;;;4939742;28;20039;-84
2022/10/05 06:12:18;;;;;;;5.00;0.57;;;;;;;;;;4920113;29;20262;-81
2022/10/05 06:15:08;;;;;;;0.20;0.10;;;;;;;;;;4925179;28;20321;-84
2022/10/05 06:17:40;;;;;;;0.20;0.10;;;;;;;;;;4927112;28;20051;-85
2022/10/05 06:20:11;;;;;;;0.30;0.20;;;;;;;;;;4953255;28;20819;-82
2022/10/05 06:22:40;;;;;;;4.43;0.90;;;;;;;;;;4925244;29;20047;-85
2022/10/05 06:25:06;;;;;;;1.85;0.20;;;;;;;;;;4935280;28;20050;-85
2022/10/05 06:27:38;;;;;;;0.20;0.08;;;;;;;;;;4938837;28;20039;-85
2022/10/05 06:30:07;;;;;;;0.20;0.10;;;;;;;;;;4938260;28;20455;-82
2022/10/05 06:32:36;;;;;;;0.25;0.20;;;;;;;;;;4938311;28;20079;-80
2022/10/05 06:35:11;;;;;;;0.30;0.20;;;;;;;;;;4933358;28;20035;-85
2022/10/05 06:37:56;;;;;;;0.20;0.13;;;;;;;;;;4935698;28;20086;-83
2022/10/05 06:40:25;;;;;;;0.20;0.10;;;;;;;;;;4926118;29;20039;-84
2022/10/05 06:42:51;;;;;;;0.20;0.10;;;;;;;;;;4936579;28;20066;-84
2022/10/05 06:45:20;;;;;;;0.20;0.10;;;;;;;;;;4945016;28;20691;-84
2022/10/05 06:48:01;;;;;;;0.20;0.10;;;;;;;;;;4939896;28;20054;-83
2022/10/05 06:50:30;;;;;;;0.20;0.20;;;;;;;;;;4933214;28;20130;-85
2022/10/05 06:53:02;;;;;;;0.20;0.10;;;;;;;;;;4934754;28;20046;-84
2022/10/05 06:55:34;;;;;;;0.30;0.30;;;;;;;;;;4925873;28;20039;-83
2022/10/05 06:58:14;;;;;;;0.20;0.10;;;;;;;;;;4922583;29;20047;-83
2022/10/05 07:00:48;;;;;;;0.20;0.10;;;;;;;;;;4939552;28;20043;-84
2022/10/05 07:03:27;;;;;;;0.20;0.10;;;;;;;;;;4935938;28;20051;-84
2022/10/05 07:06:09;;;;;;;0.20;0.20;;;;;;;;;;4923387;29;20221;-83
2022/10/05 07:08:47;;;;;;;0.40;0.23;;;;;;;;;;4936511;28;20043;-83
2022/10/05 07:11:32;;;;;;;4.95;0.68;;;;;;;;;;4951750;28;20125;-84
2022/10/05 07:14:22;;;;;;;0.20;0.10;;;;;;;;;;4931609;28;20810;-83
2022/10/05 07:17:06;;;;;;;0.35;0.15;;;;;;;;;;4939141;28;20530;-84
2022/10/05 07:19:51;;;;;;;0.22;0.15;;;;;;;;;;4942077;28;20098;-81
2022/10/05 07:22:35;;;;;;;0.20;0.10;;;;;;;;;;4944076;28;20074;-86
2022/10/05 07:25:07;;;;;;;0.30;0.20;;;;;;;;;;4922553;28;20133;-85
2022/10/05 07:27:35;;;;;;;0.28;0.17;;;;;;;;;;4923310;28;20050;-83
2022/10/05 07:30:03;;;;;;;0.20;0.20;;;;;;;;;;4919840;28;20035;-84
2022/10/05 07:32:29;;;;;;;0.30;0.25;;;;;;;;;;4919501;28;20046;-85
2022/10/05 07:34:58;;;;;;;0.20;0.10;;;;;;;;;;4921232;28;20047;-83
2022/10/05 07:40:20;;;;;;;0.20;0.10;;;;;;;;;;4935700;28;20134;-88
2022/10/05 07:43:05;;;;;;;0.20;0.10;;;;;;;;;;4923120;28;20148;-88
2022/10/05 07:45:38;;;;;;;0.20;0.10;;;;;;;;;;4937137;28;20573;-85
2022/10/05 07:48:04;;;;;;;;;;;;;;;;;;4939256;28;20075;-86
2022/10/05 07:50:33;;;;;;;0.20;0.10;;;;;;;;;;4920765;28;20020;-88
2022/10/05 07:53:06;;;;;;;0.20;0.10;;;;;;;;;;4935255;28;20047;-87
2022/10/05 07:55:35;;;;;;;0.20;0.10;;;;;;;;;;4939839;28;20055;-83
2022/10/05 07:58:19;;;;;;;0.20;0.10;;;;;;;;;;4939385;28;20051;-82
2022/10/05 08:01:01;;;;;;;0.20;0.10;;;;;;;;;;4927684;29;20053;-85
2022/10/05 08:03:46;;;;;;;0.20;0.10;;;;;;;;;;4960835;28;20809;-86
2022/10/05 08:06:15;;;;;;;0.20;0.10;;;;;;;;;;4946651;28;20494;-82
2022/10/05 08:08:41;;;;;;;0.20;0.10;;;;;;;;;;4949123;28;20047;-84
2022/10/05 08:11:13;;;;;;;0.20;0.10;;;;;;;;;;4939551;28;20728;-82
2022/10/05 08:13:48;;;;;;;0.20;0.20;;;;;;;;;;4937639;28;20054;-82
2022/10/05 08:16:15;;;;;;;0.20;0.10;;;;;;;;;;4948472;28;20050;-88
2022/10/05 08:18:56;;;;;;;0.20;0.10;;;;;;;;;;4938966;28;20047;-83
2022/10/05 08:21:26;;;;;;;8.13;0.63;;;;;;;;;;4939984;28;20518;-86
2022/10/05 08:23:56;;;;;;;0.20;0.10;;;;;;;;;;4927610;28;20074;-85
2022/10/05 08:26:35;;;;;;;0.20;0.10;;;;;;;;;;4942572;28;20424;-83
2022/10/05 08:29:20;;;;;;;0.20;0.20;;;;;;;;;;4937479;28;20050;-82
2022/10/05 08:31:48;;;;;;;0.20;0.20;;;;;;;;;;4938832;28;20126;-83
2022/10/05 08:34:30;;;;;;;0.80;0.20;;;;;;;;;;4938688;28;20053;-82
2022/10/05 08:36:56;;;;;;;0.20;0.10;;;;;;;;;;4923638;28;20039;-82
2022/10/05 08:39:25;;;;;;;0.20;0.13;;;;;;;;;;4937719;28;20043;-84
2022/10/05 08:42:10;;;;;;;0.20;0.20;;;;;;;;;;4939696;28;20066;-86
2022/10/05 08:44:36;;;;;;;0.20;0.10;;;;;;;;;;4938380;28;20039;-82
2022/10/05 08:47:15;;;;;;;1.48;0.47;;;;;;;;;;4937588;28;20040;-83
2022/10/05 08:49:55;;;;;;;0.20;0.10;;;;;;;;;;4938063;28;20513;-85
2022/10/05 08:52:35;;;;;;;0.20;0.10;;;;;;;;;;4958722;28;20055;-81
2022/10/05 08:55:14;;;;;;;0.20;0.10;;;;;;;;;;4938031;28;20075;-86
2022/10/05 08:57:45;;;;;;;0.20;0.10;;;;;;;;;;4941815;28;20047;-86
2022/10/05 09:00:19;;;;;;;0.20;0.10;;;;;;;;;;4955982;28;20051;-83
2022/10/05 09:02:54;;;;;;;0.20;0.10;;;;;;;;;;4942865;28;20047;-86
2022/10/05 09:05:32;;;;;;;0.20;0.10;;;;;;;;;;4926738;28;20035;-84
2022/10/05 09:08:07;;;;;;;0.20;0.13;;;;;;;;;;4940641;28;20039;-81
2022/10/05 09:10:58;;;;;;;0.22;0.22;;;;;;;;;;4947797;28;20073;-85
2022/10/05 09:13:24;;;;;;;0.20;0.10;;;;;;;;;;4936151;28;20046;-82
2022/10/05 09:15:50;;;;;;;0.22;0.22;;;;;;;;;;4947630;28;20126;-83
2022/10/05 09:18:16;;;;;;;0.20;0.10;;;;;;;;;;4963779;28;20054;-81
2022/10/05 09:20:51;;;;;;;0.20;0.10;;;;;;;;;;4944481;28;20039;-83
2022/10/05 09:23:17;;;;;;;0.20;0.10;;;;;;;;;;4943154;28;20142;-83
2022/10/05 09:25:53;;;;;;;0.20;0.10;;;;;;;;;;4943949;28;20062;-82
2022/10/05 09:28:31;;;;;;;0.22;0.20;;;;;;;;;;4950709;28;20174;-83
2022/10/05 09:31:02;;;;;;;0.20;0.10;;;;;;;;;;4942008;28;20499;-86
2022/10/05 09:33:28;;;;;;;0.20;0.10;;;;;;;;;;4918850;29;20166;-84
2022/10/05 09:36:06;;;;;;;0.40;0.25;;;;;;;;;;4958018;28;20043;-81
2022/10/05 09:38:51;;;;;;;0.20;0.10;;;;;;;;;;4945025;28;20059;-84
2022/10/05 09:41:23;;;;;;;0.38;0.22;;;;;;;;;;4943364;28;20069;-85
2022/10/05 09:44:04;;;;;;;0.20;0.10;;;;;;;;;;4940493;28;20077;-85
2022/10/05 09:46:30;;;;;;;0.20;0.20;;;;;;;;;;4926342;28;20047;-82
2022/10/05 09:49:10;;;;;;;0.20;0.10;;;;;;;;;;4929244;28;20141;-83
2022/10/05 09:51:36;;;;;;;0.20;0.20;;;;;;;;;;4961265;28;21195;-85
2022/10/05 09:54:02;;;;;;;0.20;0.10;;;;;;;;;;4928549;28;20051;-83
2022/10/05 09:56:28;;;;;;;0.20;0.10;;;;;;;;;;4930784;28;20070;-82
2022/10/05 09:59:13;;;;;;;0.20;0.10;;;;;;;;;;4927903;28;20039;-86
2022/10/05 10:01:57;;;;;;;0.20;0.10;;;;;;;;;;4929121;28;20063;-83
2022/10/05 10:04:42;;;;;;;0.47;0.30;;;;;;;;;;4945760;28;20039;-83
2022/10/05 10:07:12;;;;;;;0.20;0.10;;;;;;;;;;4947726;28;20134;-84
2022/10/05 10:09:38;;;;;;;0.32;0.32;;;;;;;;;;4960830;28;20077;-82
2022/10/05 10:12:20;;;;;;;0.55;0.47;;;;;;;;;;4940784;28;20384;-84
2022/10/05 10:15:05;;;;;;;0.20;0.15;;;;;;;;;;4922156;28;20069;-85
2022/10/05 10:17:31;;;;;;;0.20;0.10;;;;;;;;;;4927232;29;20069;-81
2022/10/05 10:20:16;;;;;;;0.20;0.10;;;;;;;;;;4943127;28;20042;-83
2022/10/05 10:23:21;;;;;;;0.20;0.20;;;;;;;;;;4938450;28;20093;-79
2022/10/05 10:26:10;;;;;;;0.20;0.20;;;;;;;;;;4914460;28;20039;-81
2022/10/05 10:28:55;;;;;;;0.20;0.10;;;;;;;;;;4923038;29;20047;-82
2022/10/05 10:31:24;;;;;;;0.20;0.10;;;;;;;;;;4935187;28;20043;-86
2022/10/05 10:34:09;;;;;;;0.30;0.20;;;;;;;;;;4921976;28;20168;-85
2022/10/05 10:36:36;;;;;;;0.20;0.20;;;;;;;;;;4923314;28;20043;-82
2022/10/05 10:39:11;;;;;;;0.20;0.10;;;;;;;;;;4952149;28;20055;-85
2022/10/05 10:41:40;;;;;;;0.20;0.10;;;;;;;;;;4939738;28;20781;-83
2022/10/05 10:44:22;;;;;;;0.20;0.10;;;;;;;;;;4921713;28;20043;-80
2022/10/05 10:46:48;;;;;;;0.20;0.10;;;;;;;;;;4935460;28;20058;-84
2022/10/05 10:49:33;;;;;;;0.20;0.10;;;;;;;;;;4943170;29;20043;-84
2022/10/05 10:52:12;;;;;;;0.40;0.20;;;;;;;;;;4930288;28;20074;-86
2022/10/05 10:54:41;;;;;;;0.20;0.10;;;;;;;;;;4938570;28;20558;-84
2022/10/05 10:57:27;;;;;;;0.20;0.10;;;;;;;;;;4923720;28;20043;-88
2022/10/05 11:00:14;;;;;;;0.20;0.10;;;;;;;;;;4929313;28;20455;-84
2022/10/05 11:02:49;;;;;;;1.30;1.20;;;;;;;;;;4921417;28;20039;-86
2022/10/05 11:05:18;;;;;;;0.20;0.10;;;;;;;;;;4936605;28;20157;-83
2022/10/05 11:07:47;;;;;;;0.20;0.10;;;;;;;;;;4939031;28;20035;-85
2022/10/05 11:10:13;;;;;;;0.20;0.10;;;;;;;;;;4944939;28;20050;-84
2022/10/05 11:12:58;;;;;;;0.20;0.10;;;;;;;;;;4928254;29;20090;-83
2022/10/05 11:15:43;;;;;;;0.20;0.10;;;;;;;;;;4942141;28;20054;-85
2022/10/05 11:18:28;;;;;;;0.20;0.17;;;;;;;;;;4927210;28;20051;-84
2022/10/05 11:21:13;;;;;;;0.20;0.10;;;;;;;;;;4927667;28;20031;-81
2022/10/05 11:23:45;;;;;;;0.20;0.10;;;;;;;;;;4943392;28;20044;-86
2022/10/05 11:26:40;;;;;;;0.25;0.25;;;;;;;;;;4925454;28;20038;-87
2022/10/05 11:29:12;;;;;;;0.20;0.10;;;;;;;;;;4926230;29;20090;-83
2022/10/05 11:32:02;;;;;;;0.20;0.10;;;;;;;;;;4957299;28;20490;-83
2022/10/05 11:34:49;;;;;;;0.20;0.10;;;;;;;;;;4940460;28;20612;-88
2022/10/05 11:37:24;;;;;;;0.20;0.10;;;;;;;;;;4937985;28;20639;-87
2022/10/05 11:40:09;;;;;;;0.20;0.10;;;;;;;;;;4926664;29;20051;-88
2022/10/05 11:42:59;;;;;;;0.40;0.25;;;;;;;;;;4926380;29;20059;-84
2022/10/05 11:45:31;;;;;;;0.20;0.17;;;;;;;;;;4906416;28;20918;-84
2022/10/05 11:48:03;;;;;;;0.20;0.20;;;;;;;;;;4940090;28;20078;-87
2022/10/05 11:50:37;;;;;;;0.20;0.10;;;;;;;;;;4933583;28;20130;-82
2022/10/05 11:53:03;;;;;;;0.20;0.20;;;;;;;;;;4935871;23;20108;-82
2022/10/05 11:55:51;;;;;;;0.20;0.10;;;;;;;;;;4899686;29;20659;-85
2022/10/05 11:58:43;;;;;;;0.20;0.10;;;;;;;;;;4884839;29;20060;-83
2022/10/05 12:01:26;;;;;;;0.20;0.17;;;;;;;;;;4895908;29;20044;-83
2022/10/05 12:03:57;;;;;;;0.20;0.10;;;;;;;;;;4902392;29;20041;-83
2022/10/05 12:06:35;;;;;;;0.20;0.10;;;;;;;;;;4918104;29;20040;-85
2022/10/05 12:09:20;;;;;;;0.20;0.10;;;;;;;;;;4901157;29;20036;-82
2022/10/05 12:11:46;;;;;;;0.20;0.10;;;;;;;;;;4884133;29;20419;-84
2022/10/05 12:14:28;;;;;;;0.20;0.10;;;;;;;;;;4901982;29;20040;-85
2022/10/05 12:17:00;;;;;;;0.20;0.10;;;;;;;;;;4882595;29;20054;-83
2022/10/05 12:19:30;;;;;;;0.20;0.10;;;;;;;;;;4894581;29;20047;-83
2022/10/05 12:21:58;;;;;;;0.20;0.20;;;;;;;;;;4907608;29;20043;-83
2022/10/05 12:24:24;;;;;;;0.20;0.10;;;;;;;;;;4904092;29;20051;-83
2022/10/05 12:27:00;;;;;;;0.52;0.52;;;;;;;;;;4904539;29;20055;-83
2022/10/05 12:29:27;;;;;;;0.20;0.10;;;;;;;;;;4884868;29;20319;-83
2022/10/05 12:32:12;;;;;;;0.20;0.10;;;;;;;;;;4900889;29;20043;-86
2022/10/05 12:35:04;;;;;;;0.20;0.17;;;;;;;;;;4887973;29;20036;-83
2022/10/05 12:37:50;;;;;;;0.20;0.10;;;;;;;;;;4903353;29;20052;-84
2022/10/05 12:40:45;;;;;;;0.20;0.10;;;;;;;;;;4903170;29;20050;-83
2022/10/05 12:43:17;;;;;;;0.20;0.10;;;;;;;;;;4901720;29;20080;-86
2022/10/05 12:45:46;;;;;;;0.20;0.10;;;;;;;;;;4906535;29;20044;-83
2022/10/05 12:48:22;;;;;;;0.57;0.25;;;;;;;;;;4923178;29;20932;-84
2022/10/05 12:50:50;;;;;;;0.20;0.10;;;;;;;;;;4906156;29;20104;-85
2022/10/05 12:53:37;;;;;;;0.20;0.15;;;;;;;;;;4887963;29;20044;-83
2022/10/05 12:56:09;;;;;;;0.20;0.10;;;;;;;;;;4905029;29;20040;-82
2022/10/05 12:58:41;;;;;;;0.20;0.10;;;;;;;;;;4889080;29;20048;-86
2022/10/05 13:01:07;;;;;;;0.25;0.20;;;;;;;;;;4906769;29;20044;-80
2022/10/05 13:03:36;;;;;;;0.20;0.20;;;;;;;;;;4901033;29;20047;-88
2022/10/05 13:06:09;;;;;;;0.20;0.10;;;;;;;;;;4902219;29;20526;-85
2022/10/05 13:08:35;;;;;;;0.20;0.10;;;;;;;;;;4893710;29;20043;-84
2022/10/05 13:11:05;;;;;;;0.20;0.10;;;;;;;;;;4889154;29;20071;-86
2022/10/05 13:13:50;;;;;;;0.20;0.10;;;;;;;;;;4903127;29;20044;-83
2022/10/05 13:16:16;;;;;;;0.20;0.10;;;;;;;;;;4903183;29;20343;-82
2022/10/05 13:19:00;;;;;;;0.30;0.20;;;;;;;;;;4900458;29;20411;-86
2022/10/05 13:21:26;;;;;;;0.20;0.10;;;;;;;;;;4884444;29;20068;-80
2022/10/05 13:24:18;;;;;;;0.20;0.10;;;;;;;;;;4894588;29;20052;-81
2022/10/05 13:26:47;;;;;;;0.20;0.10;;;;;;;;;;4898333;29;20048;-85
2022/10/05 13:29:22;;;;;;;0.55;0.55;;;;;;;;;;4898762;29;20522;-83
2022/10/05 13:31:55;;;;;;;0.20;0.13;;;;;;;;;;4897523;29;20048;-82
2022/10/05 13:34:37;;;;;;;0.20;0.10;;;;;;;;;;4895224;29;20052;-86
2022/10/05 13:37:07;;;;;;;0.20;0.10;;;;;;;;;;4897185;29;20123;-83
2022/10/05 13:39:39;;;;;;;0.20;0.10;;;;;;;;;;4885048;29;20048;-85
2022/10/05 13:42:11;;;;;;;0.20;0.20;;;;;;;;;;4880793;29;20392;-82
2022/10/05 13:44:38;;;;;;;;;;;;;;;;;;4903672;29;20051;-85
2022/10/05 13:47:04;;;;;;;0.20;0.10;;;;;;;;;;4903283;29;19923;-84
2022/10/05 13:49:47;;;;;;;4.40;2.38;;;;;;;;;;4907138;29;20134;-87
2022/10/05 13:52:16;;;;;;;0.20;0.10;;;;;;;;;;4906115;29;20048;-84
2022/10/05 13:54:47;;;;;;;0.20;0.10;;;;;;;;;;4907184;29;20048;-83
2022/10/05 13:57:34;;;;;;;0.20;0.10;;;;;;;;;;4897179;29;20047;-84
2022/10/05 14:00:12;;;;;;;0.20;0.10;;;;;;;;;;4897251;29;20044;-83
2022/10/05 14:02:41;;;;;;;0.30;0.20;;;;;;;;;;4896481;29;20415;-84
2022/10/05 14:05:27;;;;;;;0.57;0.20;;;;;;;;;;4898805;29;20044;-83
2022/10/05 14:07:58;;;;;;;0.20;0.10;;;;;;;;;;4888349;29;20459;-85
2022/10/05 14:10:30;;;;;;;0.20;0.10;;;;;;;;;;4897346;29;20084;-82
2022/10/05 14:12:56;;;;;;;0.20;0.10;;;;;;;;;;4905623;29;20059;-83
2022/10/05 14:15:29;;;;;;;0.20;0.10;;;;;;;;;;4888005;29;20103;-84
2022/10/05 14:17:55;;;;;;;0.30;0.15;;;;;;;;;;4905564;29;20048;-87
2022/10/05 14:20:36;;;;;;;0.20;0.10;;;;;;;;;;4900329;29;20086;-83
2022/10/05 14:23:14;;;;;;;0.20;0.10;;;;;;;;;;4900784;29;20055;-83
2022/10/05 14:25:56;;;;;;;0.20;0.10;;;;;;;;;;4905954;29;20040;-87
2022/10/05 14:28:28;;;;;;;0.20;0.10;;;;;;;;;;4903048;29;20147;-86
2022/10/05 14:31:00;;;;;;;0.20;0.10;;;;;;;;;;4876449;29;20131;-83
2022/10/05 14:33:30;;;;;;;0.20;0.10;;;;;;;;;;4883696;29;20075;-82
2022/10/05 14:35:57;;;;;;;0.20;0.10;;;;;;;;;;4899096;29;20087;-83
2022/10/05 14:38:28;;;;;;;0.20;0.20;;;;;;;;;;4900045;29;20036;-86
2022/10/05 14:41:04;;;;;;;0.20;0.10;;;;;;;;;;4886091;29;20144;-85
2022/10/05 14:43:32;;;;;;;0.30;0.15;;;;;;;;;;4892288;29;20467;-84
2022/10/05 14:46:01;;;;;;;0.20;0.10;;;;;;;;;;4878307;29;20040;-79
2022/10/05 14:48:37;;;;;;;0.20;0.10;;;;;;;;;;4888685;29;20075;-81
2022/10/05 14:51:08;;;;;;;0.20;0.10;;;;;;;;;;4873868;29;20127;-84
2022/10/05 14:53:38;;;;;;;0.20;0.10;;;;;;;;;;4917160;29;20566;-84
2022/10/05 14:56:10;;;;;;;0.20;0.10;;;;;;;;;;4899516;29;20806;-82
2022/10/05 14:58:36;;;;;;;;;;;;;;;;;;4888898;29;20048;-87
2022/10/05 15:01:15;;;;;;;0.20;0.10;;;;;;;;;;4890813;29;19953;-83
2022/10/05 15:03:41;;;;;;;0.20;0.20;;;;;;;;;;4897985;29;20128;-89
2022/10/05 15:06:12;;;;;;;0.20;0.10;;;;;;;;;;4905708;29;20448;-89
2022/10/05 15:08:44;;;;;;;0.20;0.10;;;;;;;;;;4895330;29;20940;-80
2022/10/05 15:11:16;;;;;;;0.20;0.20;;;;;;;;;;4890291;29;20042;-83
2022/10/05 15:13:47;;;;;;;0.20;0.10;;;;;;;;;;4881671;29;20051;-84
2022/10/05 15:16:18;;;;;;;0.20;0.17;;;;;;;;;;4915130;29;20086;-85
2022/10/05 15:19:03;;;;;;;0.20;0.10;;;;;;;;;;4912111;29;20126;-83
2022/10/05 15:21:41;;;;;;;0.20;0.10;;;;;;;;;;4893763;29;20040;-82
2022/10/05 15:24:27;;;;;;;0.20;0.10;;;;;;;;;;4882204;29;20056;-85
2022/10/05 15:26:58;;;;;;;0.20;0.10;;;;;;;;;;4895026;29;20048;-83
2022/10/05 15:29:31;;;;;;;0.30;0.30;;;;;;;;;;4899861;29;20043;-85
2022/10/05 15:32:18;;;;;;;0.20;0.10;;;;;;;;;;4897672;29;20095;-87
2022/10/05 15:34:48;;;;;;;0.20;0.10;;;;;;;;;;4907170;29;20092;-84
2022/10/05 15:37:19;;;;;;;0.30;0.30;;;;;;;;;;4895259;29;20048;-86
2022/10/05 15:39:52;;;;;;;0.20;0.10;;;;;;;;;;4897155;29;20040;-87
2022/10/05 15:42:45;;;;;;;0.30;0.20;;;;;;;;;;4898872;29;20036;-87